Time,TemperatureF,DewpointF,PressureIn,WindDirection,WindDirectionDegrees,WindSpeedMPH,WindSpeedGustMPH,Humidity,HourlyPrecipIn,Conditions,Clouds,dailyrainin,SolarRadiationWatts/m^2,SoftwareType,DateUTC
2013-01-10 00:02:00,17.0,15.0,-100.00,NE,42,1.0,3.0,90,0.00,,,0.00,0.000000,,2013-01-10 06:02:00,
2013-01-10 00:10:00,15.0,13.0,-100.00,NNW,333,1.0,2.0,91,0.00,,,0.00,0.000000,,2013-01-10 06:10:00,
2013-01-10 00:32:00,15.0,13.0,-100.00,NNW,333,1.0,2.0,91,0.00,,,0.00,0.000000,,2013-01-10 06:32:00,
2013-01-10 00:42:00,15.0,13.0,-100.00,NNW,333,1.0,2.0,91,0.00,,,0.00,0.000000,,2013-01-10 06:42:00,
2013-01-10 00:52:00,15.0,13.0,-100.00,NNW,333,1.0,2.0,91,0.00,,,0.00,0.000000,,2013-01-10 06:52:00,
2013-01-10 01:02:00,15.0,13.0,-100.00,NNW,333,1.0,2.0,91,0.00,,,0.00,0.000000,,2013-01-10 07:02:00,
2013-01-10 01:10:00,15.0,13.0,-100.00,South,186,1.0,3.0,91,0.00,,,0.00,0.000000,,2013-01-10 07:10:00,
2013-01-10 01:42:00,15.0,13.0,-100.00,South,186,1.0,3.0,91,0.00,,,0.00,0.000000,,2013-01-10 07:42:00,
2013-01-10 01:52:00,15.0,13.0,-100.00,South,186,1.0,3.0,91,0.00,,,0.00,0.000000,,2013-01-10 07:52:00,
2013-01-10 02:02:00,15.0,13.0,-100.00,South,186,1.0,3.0,91,0.00,,,0.00,0.000000,,2013-01-10 08:02:00,
2013-01-10 02:10:00,17.0,15.0,-100.00,South,189,3.0,8.0,91,0.00,,,0.00,0.000000,,2013-01-10 08:10:00,
2013-01-10 02:33:00,17.0,15.0,-100.00,South,189,3.0,8.0,91,0.00,,,0.00,0.000000,,2013-01-10 08:33:00,
2013-01-10 02:42:00,17.0,15.0,-100.00,South,189,3.0,8.0,91,0.00,,,0.00,0.000000,,2013-01-10 08:42:00,
2013-01-10 02:53:00,17.0,15.0,-100.00,South,189,3.0,8.0,91,0.00,,,0.00,0.000000,,2013-01-10 08:53:00,
2013-01-10 03:02:00,17.0,15.0,-100.00,South,189,3.0,8.0,91,0.00,,,0.00,0.000000,,2013-01-10 09:02:00,
2013-01-10 03:10:00,20.0,18.0,-100.00,South,187,4.0,9.0,90,0.00,,,0.00,0.000000,,2013-01-10 09:10:00,
2013-01-10 03:43:00,20.0,18.0,-100.00,South,187,4.0,9.0,90,0.00,,,0.00,0.000000,,2013-01-10 09:43:00,
2013-01-10 03:52:00,20.0,18.0,-100.00,South,187,4.0,9.0,90,0.00,,,0.00,0.000000,,2013-01-10 09:52:00,
2013-01-10 04:03:00,20.0,18.0,-100.00,South,187,4.0,9.0,90,0.00,,,0.00,0.000000,,2013-01-10 10:03:00,
2013-01-10 04:10:00,19.0,16.0,-100.00,SSW,201,3.0,7.0,86,0.00,,,0.00,0.000000,,2013-01-10 10:10:00,
2013-01-10 04:33:00,19.0,16.0,-100.00,SSW,201,3.0,7.0,86,0.00,,,0.00,0.000000,,2013-01-10 10:33:00,
2013-01-10 04:42:00,19.0,16.0,-100.00,SSW,201,3.0,7.0,86,0.00,,,0.00,0.000000,,2013-01-10 10:42:00,
2013-01-10 04:52:00,19.0,16.0,-100.00,SSW,201,3.0,7.0,86,0.00,,,0.00,0.000000,,2013-01-10 10:52:00,
2013-01-10 05:02:00,19.0,16.0,-100.00,SSW,201,3.0,7.0,86,0.00,,,0.00,0.000000,,2013-01-10 11:02:00,
2013-01-10 05:10:00,19.0,16.0,-100.00,SSE,157,2.0,7.0,86,0.00,,,0.00,0.000000,,2013-01-10 11:10:00,
2013-01-10 05:43:00,19.0,16.0,-100.00,SSE,157,2.0,7.0,86,0.00,,,0.00,0.000000,,2013-01-10 11:43:00,
2013-01-10 05:53:00,19.0,16.0,-100.00,SSE,157,2.0,7.0,86,0.00,,,0.00,0.000000,,2013-01-10 11:53:00,
2013-01-10 06:03:00,19.0,16.0,-100.00,SSE,157,2.0,7.0,86,0.00,,,0.00,0.000000,,2013-01-10 12:03:00,
2013-01-10 08:10:00,18.0,16.0,-100.00,South,170,2.0,5.0,90,-99.99,,,0.00,2.000000,,2013-01-10 14:10:00,
2013-01-10 08:33:00,18.0,16.0,-100.00,South,170,2.0,5.0,90,-99.99,,,0.00,2.000000,,2013-01-10 14:33:00,
2013-01-10 08:43:00,18.0,16.0,-100.00,South,170,2.0,5.0,90,-99.99,,,0.00,2.000000,,2013-01-10 14:43:00,
2013-01-10 08:53:00,18.0,16.0,-100.00,South,170,2.0,5.0,90,-99.99,,,0.00,2.000000,,2013-01-10 14:53:00,
2013-01-10 09:03:00,18.0,16.0,-100.00,South,170,2.0,5.0,90,-99.99,,,0.00,2.000000,,2013-01-10 15:03:00,
2013-01-10 09:10:00,26.0,20.0,-100.00,South,174,5.0,11.0,77,0.00,,,0.00,14.000000,,2013-01-10 15:10:00,
2013-01-10 09:33:00,26.0,20.0,-100.00,South,174,5.0,11.0,77,0.00,,,0.00,14.000000,,2013-01-10 15:33:00,
2013-01-10 09:43:00,26.0,20.0,-100.00,South,174,5.0,11.0,77,0.00,,,0.00,14.000000,,2013-01-10 15:43:00,
2013-01-10 09:53:00,26.0,20.0,-100.00,South,174,5.0,11.0,77,0.00,,,0.00,14.000000,,2013-01-10 15:53:00,
2013-01-10 10:02:00,26.0,20.0,-100.00,South,174,5.0,11.0,77,0.00,,,0.00,14.000000,,2013-01-10 16:02:00,
2013-01-10 10:10:00,32.0,14.0,-100.00,South,174,6.0,13.0,47,0.00,,,0.00,29.000000,,2013-01-10 16:10:00,
2013-01-10 10:43:00,32.0,14.0,-100.00,South,174,6.0,13.0,47,0.00,,,0.00,29.000000,,2013-01-10 16:43:00,
2013-01-10 10:53:00,32.0,14.0,-100.00,South,174,6.0,13.0,47,0.00,,,0.00,29.000000,,2013-01-10 16:53:00,
2013-01-10 11:03:00,32.0,14.0,-100.00,South,174,6.0,13.0,47,0.00,,,0.00,29.000000,,2013-01-10 17:03:00,
2013-01-10 11:10:00,37.0,15.0,-100.00,South,177,6.0,12.0,40,0.00,,,0.00,66.000000,,2013-01-10 17:10:00,
2013-01-10 11:43:00,37.0,15.0,-100.00,South,177,6.0,12.0,40,0.00,,,0.00,66.000000,,2013-01-10 17:43:00,
2013-01-10 11:53:00,37.0,15.0,-100.00,South,177,6.0,12.0,40,0.00,,,0.00,66.000000,,2013-01-10 17:53:00,
2013-01-10 12:03:00,37.0,15.0,-100.00,South,177,6.0,12.0,40,0.00,,,0.00,66.000000,,2013-01-10 18:03:00,
2013-01-10 12:10:00,41.0,11.0,-100.00,South,176,5.0,16.0,29,0.00,,,0.00,234.000000,,2013-01-10 18:10:00,
2013-01-10 12:43:00,41.0,11.0,-100.00,South,176,5.0,16.0,29,0.00,,,0.00,234.000000,,2013-01-10 18:43:00,
2013-01-10 12:53:00,41.0,11.0,-100.00,South,176,5.0,16.0,29,0.00,,,0.00,234.000000,,2013-01-10 18:53:00,
2013-01-10 13:03:00,41.0,11.0,-100.00,South,176,5.0,16.0,29,0.00,,,0.00,234.000000,,2013-01-10 19:03:00,
2013-01-10 13:10:00,42.0,10.0,-100.00,South,189,5.0,16.0,27,0.00,,,-99.99,276.000000,,2013-01-10 19:10:00,
2013-01-10 13:43:00,42.0,10.0,-100.00,South,189,5.0,16.0,27,0.00,,,-99.99,276.000000,,2013-01-10 19:43:00,
2013-01-10 13:53:00,42.0,10.0,-100.00,South,189,5.0,16.0,27,0.00,,,-99.99,276.000000,,2013-01-10 19:53:00,
2013-01-10 14:03:00,42.0,10.0,-100.00,South,189,5.0,16.0,27,0.00,,,-99.99,276.000000,,2013-01-10 20:03:00,
2013-01-10 14:10:00,42.0,13.0,-100.00,SSE,167,4.0,11.0,30,0.00,,,0.00,193.000000,,2013-01-10 20:10:00,
2013-01-10 14:33:00,42.0,13.0,-100.00,SSE,167,4.0,11.0,30,0.00,,,0.00,193.000000,,2013-01-10 20:33:00,
2013-01-10 14:43:00,42.0,13.0,-100.00,SSE,167,4.0,11.0,30,0.00,,,0.00,193.000000,,2013-01-10 20:43:00,
2013-01-10 14:53:00,42.0,13.0,-100.00,SSE,167,4.0,11.0,30,0.00,,,0.00,193.000000,,2013-01-10 20:53:00,
2013-01-10 15:03:00,42.0,13.0,-100.00,SSE,167,4.0,11.0,30,0.00,,,0.00,193.000000,,2013-01-10 21:03:00,
2013-01-10 15:10:00,40.0,10.0,-100.00,SSE,154,4.0,11.0,29,0.00,,,0.00,100.000000,,2013-01-10 21:10:00,
2013-01-10 15:33:00,40.0,10.0,-100.00,SSE,154,4.0,11.0,29,0.00,,,0.00,100.000000,,2013-01-10 21:33:00,
2013-01-10 15:43:00,40.0,10.0,-100.00,SSE,154,4.0,11.0,29,0.00,,,0.00,100.000000,,2013-01-10 21:43:00,
2013-01-10 15:53:00,40.0,10.0,-100.00,SSE,154,4.0,11.0,29,0.00,,,0.00,100.000000,,2013-01-10 21:53:00,
2013-01-10 16:03:00,40.0,10.0,-100.00,SSE,154,4.0,11.0,29,0.00,,,0.00,100.000000,,2013-01-10 22:03:00,
2013-01-10 16:10:00,38.0,10.0,-100.00,SE,143,4.0,11.0,31,0.00,,,0.00,31.000000,,2013-01-10 22:10:00,
2013-01-10 16:44:00,38.0,10.0,-100.00,SE,143,4.0,11.0,31,0.00,,,0.00,31.000000,,2013-01-10 22:44:00,
2013-01-10 17:03:00,38.0,10.0,-100.00,SE,143,4.0,11.0,31,0.00,,,0.00,31.000000,,2013-01-10 23:03:00,
2013-01-10 17:10:00,35.0,10.0,-100.00,SE,130,4.0,12.0,35,0.00,,,0.00,2.000000,,2013-01-10 23:10:00,
2013-01-10 17:43:00,35.0,10.0,-100.00,SE,130,4.0,12.0,35,0.00,,,0.00,2.000000,,2013-01-10 23:43:00,
2013-01-10 17:53:00,35.0,10.0,-100.00,SE,130,4.0,12.0,35,0.00,,,0.00,2.000000,,2013-01-10 23:53:00,
2013-01-10 18:03:00,35.0,10.0,-100.00,SE,130,4.0,12.0,35,0.00,,,0.00,2.000000,,2013-01-11 00:03:00,
2013-01-10 18:10:00,34.0,13.0,-100.00,SE,135,4.0,10.0,41,0.00,,,0.00,0.000000,,2013-01-11 00:10:00,
2013-01-10 18:43:00,34.0,13.0,-100.00,SE,135,4.0,10.0,41,0.00,,,0.00,0.000000,,2013-01-11 00:43:00,
2013-01-10 18:53:00,34.0,13.0,-100.00,SE,135,4.0,10.0,41,0.00,,,0.00,0.000000,,2013-01-11 00:53:00,
2013-01-10 19:03:00,34.0,13.0,-100.00,SE,135,4.0,10.0,41,0.00,,,0.00,0.000000,,2013-01-11 01:03:00,
2013-01-10 19:10:00,34.0,15.0,-100.00,SE,140,6.0,14.0,46,0.00,,,0.00,0.000000,,2013-01-11 01:10:00,
2013-01-10 19:34:00,34.0,15.0,-100.00,SE,140,6.0,14.0,46,0.00,,,0.00,0.000000,,2013-01-11 01:34:00,
2013-01-10 19:43:00,34.0,15.0,-100.00,SE,140,6.0,14.0,46,0.00,,,0.00,0.000000,,2013-01-11 01:43:00,
2013-01-10 19:53:00,34.0,15.0,-100.00,SE,140,6.0,14.0,46,0.00,,,0.00,0.000000,,2013-01-11 01:53:00,
2013-01-10 20:03:00,34.0,15.0,-100.00,SE,140,6.0,14.0,46,0.00,,,0.00,0.000000,,2013-01-11 02:03:00,
2013-01-10 20:10:00,34.0,19.0,-100.00,SE,141,5.0,15.0,54,0.00,,,0.00,0.000000,,2013-01-11 02:10:00,
2013-01-10 20:44:00,34.0,19.0,-100.00,SE,141,5.0,15.0,54,0.00,,,0.00,0.000000,,2013-01-11 02:44:00,
2013-01-10 20:54:00,34.0,19.0,-100.00,SE,141,5.0,15.0,54,0.00,,,0.00,0.000000,,2013-01-11 02:54:00,
2013-01-10 21:02:00,34.0,19.0,-100.00,SE,141,5.0,15.0,54,0.00,,,0.00,0.000000,,2013-01-11 03:02:00,
2013-01-10 21:10:00,32.0,26.0,-100.00,SE,127,5.0,14.0,79,0.03,,,0.03,0.000000,,2013-01-11 03:10:00,
2013-01-10 21:33:00,32.0,26.0,-100.00,SE,127,5.0,14.0,79,0.03,,,0.03,0.000000,,2013-01-11 03:33:00,
2013-01-10 21:43:00,32.0,26.0,-100.00,SE,127,5.0,14.0,79,0.03,,,0.03,0.000000,,2013-01-11 03:43:00,
2013-01-10 21:53:00,32.0,26.0,-100.00,SE,127,5.0,14.0,79,0.03,,,0.03,0.000000,,2013-01-11 03:53:00,
2013-01-10 22:02:00,32.0,26.0,-100.00,SE,127,5.0,14.0,79,0.03,,,0.03,0.000000,,2013-01-11 04:02:00,
2013-01-10 22:10:00,32.0,30.0,-100.00,SE,139,6.0,15.0,94,0.06,,,0.09,0.000000,,2013-01-11 04:10:00,
2013-01-10 22:33:00,32.0,30.0,-100.00,SE,139,6.0,15.0,94,0.06,,,0.09,0.000000,,2013-01-11 04:33:00,
2013-01-10 22:43:00,32.0,30.0,-100.00,SE,139,6.0,15.0,94,0.06,,,0.09,0.000000,,2013-01-11 04:43:00,
2013-01-10 22:53:00,32.0,30.0,-100.00,SE,139,6.0,15.0,94,0.06,,,0.09,0.000000,,2013-01-11 04:53:00,
2013-01-10 23:03:00,32.0,30.0,-100.00,SE,139,6.0,15.0,94,0.06,,,0.09,0.000000,,2013-01-11 05:03:00,
2013-01-10 23:10:00,32.0,31.0,-100.00,SE,137,6.0,16.0,97,0.05,,,0.14,0.000000,,2013-01-11 05:10:00,
2013-01-10 23:33:00,32.0,31.0,-100.00,SE,137,6.0,16.0,97,0.05,,,0.14,0.000000,,2013-01-11 05:33:00,
2013-01-10 23:43:00,32.0,31.0,-100.00,SE,137,6.0,16.0,97,0.05,,,0.14,0.000000,,2013-01-11 05:43:00,
2013-01-10 23:53:00,32.0,31.0,-100.00,SE,137,6.0,16.0,97,0.05,,,0.14,0.000000,,2013-01-11 05:53:00,